Time;durP1;ratioP1;P1;durP2;ratioP2;P2;SDS_P1;SDS_P2;PMS_P1;PMS_P2;Temp;Humidity;BMP_temperature;BMP_pressure;BME280_temperature;BME280_humidity;BME280_pressure;Samples;Min_cycle;Max_cycle;Signal;HPM_P1;HPM_P2
2022/01/04 00:01:51;;;;;;;1.95;1.13;;;9.60;99.90;;;;;;5069433;28;20008;-82
2022/01/04 00:04:17;;;;;;;0.70;0.70;;;9.80;99.90;;;;;;5070891;28;20027;-75
2022/01/04 00:06:45;;;;;;;1.08;0.43;;;10.60;99.90;;;;;;5075218;28;20162;-78
2022/01/04 00:09:11;;;;;;;1.00;0.30;;;11.10;99.90;;;;;;5073451;28;20049;-83
2022/01/04 00:14:21;;;;;;;0.40;0.40;;;11.60;99.90;;;;;;5091891;28;20031;-74
2022/01/04 00:16:50;;;;;;;0.30;0.30;;;11.90;99.90;;;;;;5070721;28;20027;-77
2022/01/04 00:19:17;;;;;;;0.55;0.52;;;12.00;99.90;;;;;;5068428;28;20030;-73
2022/01/04 00:21:43;;;;;;;1.27;0.50;;;12.20;99.90;;;;;;5088233;28;20495;-83
2022/01/04 00:24:09;;;;;;;0.30;0.30;;;12.20;99.90;;;;;;5088249;28;20098;-77
2022/01/04 00:26:35;;;;;;;0.35;0.30;;;12.20;99.90;;;;;;5087554;28;20249;-76
2022/01/04 00:29:01;;;;;;;0.90;0.57;;;12.40;99.90;;;;;;5069349;28;20034;-82
2022/01/04 00:31:27;;;;;;;0.40;0.40;;;12.50;99.90;;;;;;5069526;28;20032;-80
2022/01/04 00:33:53;;;;;;;0.68;0.68;;;12.50;99.90;;;;;;5068803;28;20073;-84
2022/01/04 00:36:19;;;;;;;1.15;0.60;;;12.70;99.90;;;;;;5069193;28;20024;-75
2022/01/04 00:38:45;;;;;;;0.52;0.52;;;12.60;99.90;;;;;;5069189;28;20479;-85
2022/01/04 00:41:11;;;;;;;0.93;0.70;;;12.60;99.90;;;;;;5089790;28;20027;-77
2022/01/04 00:43:36;;;;;;;1.33;0.43;;;12.60;99.90;;;;;;5083046;28;20054;-77
2022/01/04 00:46:03;;;;;;;1.00;0.30;;;12.60;99.90;;;;;;5092776;28;20039;-80
2022/01/04 00:50:55;;;;;;;1.30;0.50;;;12.50;99.90;;;;;;5110293;28;20643;-82
2022/01/04 00:53:21;;;;;;;0.45;0.40;;;12.30;99.90;;;;;;5111269;28;20023;-77
2022/01/04 00:55:47;;;;;;;0.57;0.50;;;12.40;99.90;;;;;;5091854;28;20043;-78
2022/01/04 00:58:12;;;;;;;0.95;0.40;;;12.30;99.90;;;;;;5075763;28;20024;-78
2022/01/04 01:00:39;;;;;;;0.60;0.60;;;12.50;99.90;;;;;;5071277;28;20389;-81
2022/01/04 01:03:06;;;;;;;0.85;0.63;;;12.40;99.90;;;;;;5071490;28;20025;-78
2022/01/04 01:05:33;;;;;;;1.38;0.45;;;12.50;99.90;;;;;;5089813;28;20392;-75
2022/01/04 01:08:00;;;;;;;2.42;0.70;;;12.70;99.90;;;;;;5091105;28;20023;-81
2022/01/04 01:13:01;;;;;;;0.80;0.60;;;12.90;98.80;;;;;;5108303;28;20015;-77
2022/01/04 01:15:27;;;;;;;0.60;0.60;;;12.90;98.40;;;;;;5085186;28;20383;-82
2022/01/04 01:17:53;;;;;;;0.80;0.75;;;12.90;98.10;;;;;;5070562;28;20157;-78
2022/01/04 01:20:19;;;;;;;1.48;0.95;;;12.90;98.20;;;;;;5087334;28;20036;-81
2022/01/04 01:22:45;;;;;;;0.45;0.45;;;12.90;98.80;;;;;;5069408;28;20020;-83
2022/01/04 01:25:13;;;;;;;0.50;0.50;;;13.00;97.70;;;;;;5087782;28;20544;-77
2022/01/04 01:27:40;;;;;;;0.80;0.80;;;13.00;98.50;;;;;;5069035;28;20431;-84
2022/01/04 01:30:07;;;;;;;0.80;0.60;;;13.10;97.50;;;;;;5070317;28;20024;-80
2022/01/04 01:32:33;;;;;;;1.17;1.02;;;13.00;97.50;;;;;;5069324;28;20024;-79
2022/01/04 01:34:59;;;;;;;1.05;0.90;;;13.00;97.10;;;;;;5068899;28;20028;-79
2022/01/04 01:37:25;;;;;;;2.20;0.80;;;13.10;97.20;;;;;;5068346;28;20044;-74
2022/01/04 01:39:51;;;;;;;3.30;0.88;;;13.00;97.40;;;;;;5086687;28;20051;-77
2022/01/04 01:42:17;;;;;;;1.80;0.73;;;13.00;97.40;;;;;;5068857;28;20024;-79
2022/01/04 01:44:42;;;;;;;0.90;0.68;;;13.00;97.30;;;;;;5088055;28;20024;-83
2022/01/04 01:47:08;;;;;;;8.25;2.20;;;13.00;97.50;;;;;;5090021;28;20036;-77
2022/01/04 01:49:34;;;;;;;2.45;1.40;;;12.90;98.00;;;;;;5074140;28;20023;-83
2022/01/04 01:52:00;;;;;;;0.88;0.70;;;12.80;97.90;;;;;;5070385;28;20509;-82
2022/01/04 01:54:26;;;;;;;2.13;0.73;;;12.90;97.60;;;;;;5089402;28;20024;-81
2022/01/04 01:56:52;;;;;;;1.85;1.17;;;12.90;97.70;;;;;;5107350;28;20101;-79
2022/01/04 01:59:18;;;;;;;3.50;1.05;;;12.90;97.60;;;;;;5106933;28;20051;-77
2022/01/04 02:01:44;;;;;;;1.45;0.68;;;12.90;97.90;;;;;;5091032;28;20027;-75
2022/01/04 02:04:10;;;;;;;1.52;0.80;;;12.80;97.90;;;;;;5110970;28;20039;-79
2022/01/04 02:06:36;;;;;;;0.70;0.50;;;12.80;97.80;;;;;;5111246;28;20118;-77
2022/01/04 02:09:04;;;;;;;2.67;1.10;;;13.00;97.20;;;;;;5111424;28;20016;-76
2022/01/04 02:11:31;;;;;;;2.08;0.95;;;13.00;97.40;;;;;;5092218;28;20143;-83
2022/01/04 02:13:58;;;;;;;1.38;0.40;;;13.10;97.10;;;;;;5110611;28;20502;-77
2022/01/04 02:16:30;;;;;;;0.65;0.65;;;13.00;97.60;;;;;;5110367;28;20084;-82
2022/01/04 02:19:00;;;;;;;0.65;0.65;;;13.10;97.50;;;;;;5091651;28;20066;-79
2022/01/04 02:21:26;;;;;;;1.13;0.40;;;13.10;97.20;;;;;;5109914;28;20063;-75
2022/01/04 02:23:51;;;;;;;1.60;0.30;;;13.00;97.50;;;;;;5091950;28;20495;-76
2022/01/04 02:26:18;;;;;;;0.82;0.40;;;13.00;97.70;;;;;;5111247;28;20039;-78
2022/01/04 02:28:45;;;;;;;0.98;0.77;;;12.90;97.80;;;;;;5111103;28;20020;-74
2022/01/04 02:31:11;;;;;;;1.38;1.27;;;13.00;98.20;;;;;;5111230;28;20084;-76
2022/01/04 02:33:36;;;;;;;0.40;0.40;;;13.00;98.80;;;;;;5092832;28;20024;-73
2022/01/04 02:36:02;;;;;;;0.30;0.30;;;12.90;99.30;;;;;;5111048;28;20445;-75
2022/01/04 02:38:28;;;;;;;1.25;0.88;;;12.90;99.60;;;;;;5110897;28;20636;-75
2022/01/04 02:40:54;;;;;;;1.13;0.30;;;13.10;99.20;;;;;;5092897;28;20498;-74
2022/01/04 02:43:19;;;;;;;0.30;0.30;;;13.20;98.70;;;;;;5113217;28;20024;-73
2022/01/04 02:45:45;;;;;;;0.32;0.32;;;13.30;98.60;;;;;;5112464;28;20039;-76
2022/01/04 02:48:11;;;;;;;0.30;0.30;;;13.30;99.00;;;;;;5112517;28;20027;-75
2022/01/04 02:50:36;;;;;;;0.25;0.25;;;13.30;99.30;;;;;;5093961;28;20047;-74
2022/01/04 02:53:02;;;;;;;1.45;0.32;;;13.30;98.70;;;;;;5093633;28;20023;-76
2022/01/04 02:55:28;;;;;;;0.65;0.40;;;13.30;99.50;;;;;;5093939;28;20023;-76
2022/01/04 02:57:54;;;;;;;0.43;0.30;;;13.30;99.50;;;;;;5112403;28;20024;-75
2022/01/04 03:00:19;;;;;;;0.17;0.17;;;13.40;99.40;;;;;;5093570;28;20072;-75
2022/01/04 03:02:45;;;;;;;0.28;0.25;;;13.40;99.60;;;;;;5093807;28;20084;-76
2022/01/04 03:05:11;;;;;;;0.65;0.30;;;13.50;99.90;;;;;;5112118;28;20024;-74
2022/01/04 03:07:37;;;;;;;0.55;0.40;;;13.70;99.20;;;;;;5111778;28;20038;-75
2022/01/04 03:10:04;;;;;;;0.20;0.20;;;13.70;99.50;;;;;;5093791;28;20048;-75
2022/01/04 03:12:30;;;;;;;0.10;0.10;;;13.80;99.90;;;;;;5111273;28;20035;-76
2022/01/04 03:14:56;;;;;;;0.10;0.10;;;13.80;99.90;;;;;;5111763;28;20084;-73
2022/01/04 03:17:22;;;;;;;0.65;0.20;;;13.70;99.90;;;;;;5093864;28;20126;-75
2022/01/04 03:19:47;;;;;;;0.20;0.20;;;13.70;99.90;;;;;;5112340;28;20099;-75
2022/01/04 03:22:13;;;;;;;0.20;0.20;;;13.70;99.90;;;;;;5111659;28;20035;-73
2022/01/04 03:24:39;;;;;;;0.13;0.13;;;13.70;99.90;;;;;;5093157;28;20035;-74
2022/01/04 03:27:05;;;;;;;1.77;0.20;;;13.70;99.90;;;;;;5111703;28;20028;-76
2022/01/04 03:29:31;;;;;;;0.20;0.20;;;13.70;99.90;;;;;;5111817;28;20102;-75
2022/01/04 03:31:57;;;;;;;0.75;0.52;;;13.70;99.90;;;;;;5093619;28;20038;-74
2022/01/04 03:34:24;;;;;;;0.45;0.20;;;13.60;99.90;;;;;;5111907;28;20019;-76
2022/01/04 03:36:50;;;;;;;0.22;0.22;;;13.60;99.90;;;;;;5111797;28;20097;-75
2022/01/04 03:39:16;;;;;;;2.55;0.80;;;13.70;99.90;;;;;;5093013;28;20084;-76
2022/01/04 03:41:44;;;;;;;0.20;0.20;;;13.50;99.90;;;;;;5111398;28;20034;-74
2022/01/04 03:44:20;;;;;;;1.10;0.30;;;13.30;99.90;;;;;;5093156;28;20027;-76
2022/01/04 03:46:47;;;;;;;1.42;0.38;;;13.10;99.90;;;;;;5111321;28;20607;-73
2022/01/04 03:49:13;;;;;;;0.40;0.40;;;13.00;99.90;;;;;;5092985;28;20028;-73
2022/01/04 03:51:39;;;;;;;0.85;0.20;;;12.80;99.90;;;;;;5093019;28;20501;-74
2022/01/04 03:54:04;;;;;;;0.50;0.50;;;12.50;99.90;;;;;;5111063;28;20437;-73
2022/01/04 03:56:30;;;;;;;0.40;0.40;;;12.40;99.90;;;;;;5092842;28;20061;-73
2022/01/04 03:58:56;;;;;;;3.88;1.13;;;12.30;99.90;;;;;;5092353;28;20031;-73
2022/01/04 04:01:21;;;;;;;0.30;0.30;;;12.30;99.90;;;;;;5110547;28;20164;-73
2022/01/04 04:03:47;;;;;;;0.30;0.30;;;12.30;99.90;;;;;;5110693;28;20049;-73
2022/01/04 04:06:13;;;;;;;0.40;0.40;;;12.30;99.90;;;;;;5110888;28;20082;-74
2022/01/04 04:08:39;;;;;;;1.13;0.40;;;12.20;99.90;;;;;;5092286;28;20097;-73
2022/01/04 04:11:05;;;;;;;0.65;0.65;;;12.20;99.90;;;;;;5092654;28;20283;-73
2022/01/04 04:13:30;;;;;;;0.38;0.38;;;12.30;99.90;;;;;;5110859;28;20329;-74
2022/01/04 04:15:56;;;;;;;0.75;0.30;;;12.50;99.90;;;;;;5092589;28;20097;-72
2022/01/04 04:18:22;;;;;;;0.32;0.20;;;12.50;99.90;;;;;;5092368;28;20024;-75
2022/01/04 04:20:48;;;;;;;0.28;0.28;;;12.60;99.90;;;;;;5110738;28;20030;-73
2022/01/04 04:23:13;;;;;;;0.40;0.40;;;12.70;99.90;;;;;;5091734;28;20031;-74
2022/01/04 04:25:40;;;;;;;0.40;0.22;;;12.80;99.90;;;;;;5092275;28;20043;-73
2022/01/04 04:28:06;;;;;;;0.10;0.10;;;12.80;99.90;;;;;;5110400;28;20035;-78
2022/01/04 04:30:32;;;;;;;0.40;0.20;;;12.60;99.90;;;;;;5092370;28;20015;-74
2022/01/04 04:32:57;;;;;;;0.20;0.20;;;12.50;99.90;;;;;;5092149;28;20169;-73
2022/01/04 04:35:23;;;;;;;0.30;0.30;;;12.50;99.90;;;;;;5110284;28;20032;-76
2022/01/04 04:37:49;;;;;;;0.20;0.20;;;12.30;99.90;;;;;;5091332;28;20031;-75
2022/01/04 04:40:15;;;;;;;0.25;0.22;;;12.20;99.90;;;;;;5091886;28;20051;-74
2022/01/04 04:42:41;;;;;;;0.20;0.20;;;12.30;99.90;;;;;;5109894;28;20035;-73
2022/01/04 04:45:08;;;;;;;0.20;0.20;;;12.10;99.90;;;;;;5091870;28;20083;-75
2022/01/04 04:47:34;;;;;;;0.20;0.20;;;12.00;99.90;;;;;;5110407;28;20023;-74
2022/01/04 04:50:00;;;;;;;0.68;0.38;;;11.90;99.90;;;;;;5092331;28;20023;-73
2022/01/04 04:52:26;;;;;;;2.50;0.30;;;11.70;99.90;;;;;;5110093;28;20093;-73
2022/01/04 04:54:51;;;;;;;0.50;0.20;;;11.60;99.90;;;;;;5091846;28;20501;-80
2022/01/04 04:57:17;;;;;;;1.05;0.20;;;11.50;99.90;;;;;;5110443;28;20147;-74
2022/01/04 04:59:43;;;;;;;0.40;0.30;;;11.50;99.90;;;;;;5091903;28;20042;-75
2022/01/04 05:02:08;;;;;;;1.02;0.28;;;11.50;99.90;;;;;;5091967;28;20034;-73
2022/01/04 05:04:35;;;;;;;0.30;0.30;;;11.50;99.90;;;;;;5109995;28;20056;-79
2022/01/04 05:07:01;;;;;;;1.27;0.30;;;11.40;99.90;;;;;;5091740;28;20051;-80
2022/01/04 05:09:27;;;;;;;0.10;0.10;;;11.30;99.90;;;;;;5109935;28;20285;-77
2022/01/04 05:11:53;;;;;;;0.57;0.57;;;11.20;99.90;;;;;;5109614;28;20055;-72
2022/01/04 05:14:19;;;;;;;0.25;0.15;;;11.20;99.90;;;;;;5091553;28;20409;-78
2022/01/04 05:16:45;;;;;;;0.20;0.20;;;11.10;99.90;;;;;;5091838;28;20028;-74
2022/01/04 05:19:10;;;;;;;0.80;0.20;;;11.10;99.90;;;;;;5091825;28;20030;-75
2022/01/04 05:21:36;;;;;;;0.10;0.10;;;11.20;99.90;;;;;;5109858;28;20031;-78
2022/01/04 05:24:02;;;;;;;0.73;0.73;;;11.20;99.90;;;;;;5110219;28;20310;-74
2022/01/04 05:26:28;;;;;;;0.30;0.30;;;11.20;99.90;;;;;;5110001;28;20118;-79
2022/01/04 05:28:53;;;;;;;1.00;0.30;;;11.20;99.90;;;;;;5091758;28;20055;-77
2022/01/04 05:31:19;;;;;;;0.45;0.45;;;11.20;99.90;;;;;;5091602;28;20031;-75
2022/01/04 05:33:45;;;;;;;0.20;0.20;;;11.30;99.90;;;;;;5091762;28;20047;-75
2022/01/04 05:36:11;;;;;;;0.20;0.20;;;11.40;99.90;;;;;;5111034;28;20468;-79
2022/01/04 05:38:36;;;;;;;0.93;0.70;;;11.30;99.90;;;;;;5113607;28;20063;-74
2022/01/04 05:41:02;;;;;;;0.45;0.35;;;11.40;99.90;;;;;;5095168;28;20028;-74
2022/01/04 05:43:28;;;;;;;1.20;0.30;;;11.50;99.90;;;;;;5095170;28;20066;-76
2022/01/04 05:45:53;;;;;;;0.47;0.10;;;11.60;99.90;;;;;;5095752;28;20061;-74
2022/01/04 05:48:20;;;;;;;0.10;0.10;;;11.70;99.90;;;;;;5095220;28;20040;-76
2022/01/04 05:50:47;;;;;;;1.63;0.20;;;11.70;99.90;;;;;;5113695;28;20031;-74
2022/01/04 05:53:13;;;;;;;0.40;0.40;;;11.90;99.90;;;;;;5094959;28;20019;-74
2022/01/04 05:55:39;;;;;;;2.05;1.13;;;12.00;99.90;;;;;;5095171;28;20027;-74
2022/01/04 05:58:04;;;;;;;0.88;0.20;;;12.00;99.90;;;;;;5094785;28;20032;-73
2022/01/04 06:00:30;;;;;;;0.88;0.40;;;12.30;99.90;;;;;;5094490;28;20547;-73
2022/01/04 06:02:58;;;;;;;1.55;0.28;;;12.60;99.90;;;;;;5113604;28;20019;-73
2022/01/04 06:05:24;;;;;;;0.57;0.25;;;12.80;99.90;;;;;;5093652;28;20245;-74
2022/01/04 06:07:50;;;;;;;0.20;0.20;;;12.80;99.90;;;;;;5092417;28;20042;-73
2022/01/04 06:10:16;;;;;;;0.35;0.30;;;13.10;99.90;;;;;;5092496;28;20430;-74
2022/01/04 06:15:10;;;;;;;0.20;0.20;;;13.30;99.90;;;;;;5112952;28;20122;-73
2022/01/04 06:17:49;;;;;;;0.40;0.40;;;13.30;99.90;;;;;;5113630;28;20430;-74
2022/01/04 06:20:17;;;;;;;0.10;0.10;;;13.50;99.90;;;;;;5113031;28;20026;-76
2022/01/04 06:22:43;;;;;;;1.90;0.73;;;13.50;99.90;;;;;;5094582;28;20027;-75
2022/01/04 06:25:12;;;;;;;0.28;0.28;;;13.70;99.90;;;;;;5084082;28;20059;-76
2022/01/04 06:27:40;;;;;;;0.73;0.40;;;13.70;99.90;;;;;;5094113;28;20031;-73
2022/01/04 06:30:07;;;;;;;0.33;0.27;;;14.00;99.90;;;;;;5112783;28;20032;-74
2022/01/04 06:32:33;;;;;;;0.30;0.22;;;13.90;99.90;;;;;;5095447;28;20349;-73
2022/01/04 06:34:58;;;;;;;0.70;0.28;;;13.80;99.90;;;;;;5120188;28;20050;-74
2022/01/04 06:37:24;;;;;;;0.22;0.22;;;13.90;99.90;;;;;;5102494;28;20133;-74
2022/01/04 06:39:50;;;;;;;0.10;0.10;;;13.90;99.90;;;;;;5085959;28;20042;-72
2022/01/04 06:42:15;;;;;;;0.30;0.30;;;13.90;99.90;;;;;;5107236;28;20034;-72
2022/01/04 06:44:43;;;;;;;1.75;0.80;;;13.80;99.90;;;;;;5099606;28;20054;-72
2022/01/04 06:47:09;;;;;;;0.85;0.30;;;13.90;99.90;;;;;;5103674;28;20223;-74
2022/01/04 06:49:35;;;;;;;0.22;0.22;;;13.90;99.90;;;;;;5105117;28;20028;-73
2022/01/04 06:52:01;;;;;;;1.10;0.32;;;14.00;99.90;;;;;;5101719;28;20020;-73
2022/01/04 06:54:26;;;;;;;0.20;0.20;;;14.00;99.90;;;;;;5100583;28;20476;-72
2022/01/04 06:56:52;;;;;;;0.30;0.30;;;13.90;99.90;;;;;;5100344;28;20028;-73
2022/01/04 06:59:18;;;;;;;0.40;0.40;;;14.00;99.90;;;;;;5082781;28;20032;-71
2022/01/04 07:01:45;;;;;;;0.47;0.30;;;14.20;99.90;;;;;;5082927;28;20069;-72
2022/01/04 07:04:10;;;;;;;0.73;0.28;;;14.20;99.90;;;;;;5081989;28;20085;-74
2022/01/04 07:06:36;;;;;;;0.45;0.30;;;14.20;99.90;;;;;;5101953;28;20262;-73
2022/01/04 07:09:04;;;;;;;0.30;0.30;;;14.20;99.90;;;;;;5083712;28;20091;-78
2022/01/04 07:11:30;;;;;;;0.28;0.28;;;14.30;99.90;;;;;;5083303;28;20031;-75
2022/01/04 07:13:55;;;;;;;0.28;0.28;;;14.40;99.90;;;;;;5099361;28;20026;-73
2022/01/04 07:16:21;;;;;;;0.47;0.47;;;14.40;99.90;;;;;;5077561;28;20020;-73
2022/01/04 07:18:48;;;;;;;0.20;0.20;;;14.30;99.90;;;;;;5100675;28;20060;-73
2022/01/04 07:21:18;;;;;;;0.25;0.22;;;14.20;99.90;;;;;;5101471;28;20154;-73
2022/01/04 07:23:44;;;;;;;3.20;0.40;;;14.20;99.90;;;;;;5103112;28;20027;-75
2022/01/04 07:26:14;;;;;;;0.25;0.25;;;14.20;99.90;;;;;;5101700;28;20048;-73
2022/01/04 07:28:45;;;;;;;0.30;0.30;;;14.40;99.90;;;;;;5101066;28;20111;-74
2022/01/04 07:31:12;;;;;;;1.65;0.40;;;14.60;99.90;;;;;;5072379;28;20031;-73
2022/01/04 07:33:38;;;;;;;0.40;0.40;;;14.60;99.90;;;;;;5072781;28;20024;-85
2022/01/04 07:36:06;;;;;;;0.20;0.20;;;14.70;99.90;;;;;;5071878;28;20056;-80
2022/01/04 07:38:33;;;;;;;0.50;0.35;;;14.80;99.90;;;;;;5077031;28;20110;-76
2022/01/04 07:40:59;;;;;;;0.30;0.30;;;14.80;99.90;;;;;;5090686;28;20151;-75
2022/01/04 07:43:24;;;;;;;0.40;0.40;;;15.00;99.90;;;;;;5089481;28;20384;-74
2022/01/04 07:45:50;;;;;;;0.32;0.32;;;15.20;99.90;;;;;;5087533;28;20471;-74
2022/01/04 07:48:16;;;;;;;0.32;0.32;;;15.30;99.90;;;;;;5100213;28;20118;-80
2022/01/04 07:50:42;;;;;;;0.30;0.30;;;15.40;99.90;;;;;;5078634;28;20122;-81
2022/01/04 07:53:08;;;;;;;0.22;0.22;;;15.50;99.90;;;;;;5091151;28;20512;-78
2022/01/04 07:55:34;;;;;;;0.45;0.45;;;15.60;98.50;;;;;;5090250;28;20061;-81
2022/01/04 07:58:00;;;;;;;0.30;0.30;;;15.50;98.70;;;;;;5090488;28;20395;-77
2022/01/04 08:00:26;;;;;;;0.30;0.30;;;15.60;97.60;;;;;;5085218;28;20497;-80
2022/01/04 08:02:54;;;;;;;0.40;0.40;;;15.70;96.30;;;;;;5079128;28;20074;-76
2022/01/04 08:05:20;;;;;;;0.35;0.35;;;15.80;95.80;;;;;;5070043;28;20039;-77
2022/01/04 08:07:46;;;;;;;1.42;0.43;;;15.70;96.30;;;;;;5089281;28;20116;-81
2022/01/04 08:10:12;;;;;;;0.40;0.40;;;15.90;95.10;;;;;;5071707;28;20119;-77
2022/01/04 08:12:42;;;;;;;1.02;0.50;;;15.90;94.30;;;;;;5071074;28;20495;-73
2022/01/04 08:15:09;;;;;;;0.93;0.40;;;16.00;93.50;;;;;;5069655;28;20035;-77
2022/01/04 08:17:39;;;;;;;0.55;0.55;;;16.00;94.30;;;;;;5070072;28;20078;-77
2022/01/04 08:20:06;;;;;;;0.50;0.40;;;16.00;92.70;;;;;;5089053;28;20036;-78
2022/01/04 08:22:32;;;;;;;1.45;0.30;;;16.10;92.60;;;;;;5087670;28;20108;-80
2022/01/04 08:25:04;;;;;;;0.47;0.45;;;16.10;92.60;;;;;;5087802;28;20028;-80
2022/01/04 08:27:30;;;;;;;0.60;0.52;;;16.10;92.50;;;;;;5078408;28;20119;-74
2022/01/04 08:29:56;;;;;;;0.82;0.40;;;16.20;92.10;;;;;;5109979;28;20027;-75
2022/01/04 08:32:22;;;;;;;0.32;0.32;;;16.20;91.40;;;;;;5109411;28;20042;-76
2022/01/04 08:34:48;;;;;;;0.43;0.30;;;16.40;90.70;;;;;;5090396;28;20023;-75
2022/01/04 08:37:14;;;;;;;0.65;0.65;;;16.30;91.10;;;;;;5090283;28;20024;-78
2022/01/04 08:39:40;;;;;;;2.53;0.68;;;16.30;90.40;;;;;;5110074;28;20054;-78
2022/01/04 08:42:05;;;;;;;0.30;0.30;;;16.20;90.50;;;;;;5090973;28;20080;-74
2022/01/04 08:44:33;;;;;;;1.60;0.50;;;16.30;90.60;;;;;;5088734;28;20024;-76
2022/01/04 08:46:59;;;;;;;2.80;0.38;;;16.40;90.00;;;;;;5089451;28;20131;-76
2022/01/04 08:49:25;;;;;;;1.65;0.70;;;16.40;89.50;;;;;;5089109;28;20363;-78
2022/01/04 08:51:51;;;;;;;1.27;0.45;;;16.40;88.20;;;;;;5088884;28;20051;-76
2022/01/04 08:54:16;;;;;;;0.50;0.50;;;16.40;88.80;;;;;;5091819;28;20066;-77
2022/01/04 08:56:43;;;;;;;4.85;0.57;;;16.50;88.50;;;;;;5108127;28;20020;-77
2022/01/04 08:59:13;;;;;;;0.60;0.60;;;16.60;87.80;;;;;;5089153;28;20063;-76
2022/01/04 09:01:40;;;;;;;4.28;0.55;;;16.60;88.20;;;;;;5089133;28;20460;-76
2022/01/04 09:04:06;;;;;;;1.33;0.70;;;16.50;88.00;;;;;;5088264;28;20023;-80
2022/01/04 09:06:33;;;;;;;0.50;0.35;;;16.60;88.00;;;;;;5088895;28;20465;-77
2022/01/04 09:09:00;;;;;;;0.77;0.40;;;16.60;87.00;;;;;;5088421;28;20145;-76
2022/01/04 09:11:26;;;;;;;2.35;0.50;;;16.60;86.90;;;;;;5106016;28;20110;-77
2022/01/04 09:14:01;;;;;;;1.70;0.55;;;16.70;85.90;;;;;;5106779;28;20033;-76
2022/01/04 09:19:10;;;;;;;0.70;0.50;;;16.80;86.10;;;;;;5107198;28;20030;-78
2022/01/04 09:21:37;;;;;;;1.63;0.30;;;16.80;85.10;;;;;;5088745;28;20031;-77
2022/01/04 09:24:05;;;;;;;0.47;0.40;;;16.70;88.60;;;;;;5089378;28;20468;-78
2022/01/04 09:26:30;;;;;;;0.57;0.40;;;16.70;86.30;;;;;;5106436;28;20089;-79
2022/01/04 09:28:56;;;;;;;0.60;0.60;;;16.90;85.80;;;;;;5069017;28;20391;-79
2022/01/04 09:31:28;;;;;;;2.42;0.70;;;16.90;85.30;;;;;;5069933;28;20024;-78
2022/01/04 09:33:56;;;;;;;0.63;0.43;;;16.90;85.10;;;;;;5068639;28;20035;-76
2022/01/04 09:36:22;;;;;;;1.45;0.60;;;16.90;85.70;;;;;;5086990;28;20076;-77
2022/01/04 09:38:49;;;;;;;2.05;0.50;;;16.30;85.90;;;;;;5086290;28;20040;-77
2022/01/04 09:41:14;;;;;;;1.65;0.93;;;16.90;85.20;;;;;;5068368;28;20488;-76
2022/01/04 09:43:40;;;;;;;0.60;0.60;;;16.90;84.80;;;;;;5087574;28;20035;-79
2022/01/04 09:46:06;;;;;;;1.98;0.77;;;17.00;85.00;;;;;;5073425;28;20031;-86
2022/01/04 09:48:32;;;;;;;0.60;0.60;;;17.00;84.30;;;;;;5089235;28;20028;-81
2022/01/04 09:50:57;;;;;;;0.88;0.88;;;17.10;83.40;;;;;;5068309;28;20028;-76
2022/01/04 09:53:24;;;;;;;2.63;1.63;;;17.10;83.30;;;;;;5067958;28;20059;-77
2022/01/04 09:55:52;;;;;;;2.63;0.68;;;17.20;81.70;;;;;;5069082;28;20434;-77
2022/01/04 09:58:20;;;;;;;2.13;1.25;;;17.20;82.30;;;;;;5086816;28;20119;-76
2022/01/04 10:00:47;;;;;;;1.88;0.63;;;17.30;82.50;;;;;;5086975;28;20024;-79
2022/01/04 10:03:17;;;;;;;0.40;0.40;;;17.30;81.30;;;;;;5086969;28;20103;-80
2022/01/04 10:05:43;;;;;;;1.27;0.90;;;17.30;81.80;;;;;;5069149;28;20070;-77
2022/01/04 10:08:10;;;;;;;1.45;0.82;;;17.40;80.00;;;;;;5086415;28;20031;-77
2022/01/04 10:10:37;;;;;;;1.40;0.73;;;17.50;81.40;;;;;;5086674;28;20111;-81
2022/01/04 10:13:09;;;;;;;0.65;0.65;;;17.40;80.00;;;;;;5068809;28;20039;-77
2022/01/04 10:15:34;;;;;;;4.20;0.70;;;17.50;79.70;;;;;;5086541;28;20555;-78
2022/01/04 10:18:20;;;;;;;1.58;0.80;;;17.50;80.40;;;;;;5068975;28;20107;-79
2022/01/04 10:20:52;;;;;;;3.60;0.65;;;17.60;79.50;;;;;;5086998;28;20051;-78
2022/01/04 10:23:23;;;;;;;1.10;0.52;;;17.60;79.00;;;;;;5071112;28;20074;-77
2022/01/04 10:26:15;;;;;;;1.80;1.10;;;17.70;78.80;;;;;;5090366;28;20054;-87
2022/01/04 10:28:45;;;;;;;1.85;0.77;;;17.70;77.90;;;;;;5106596;28;20062;-78
2022/01/04 10:31:18;;;;;;;0.68;0.45;;;17.80;78.10;;;;;;5095449;28;20084;-74
2022/01/04 10:33:50;;;;;;;1.02;0.73;;;17.70;78.80;;;;;;5111186;28;20023;-74
2022/01/04 10:36:19;;;;;;;1.58;1.08;;;17.90;76.70;;;;;;5092435;28;20026;-76
2022/01/04 10:38:46;;;;;;;0.80;0.80;;;17.90;77.20;;;;;;5110380;28;20043;-75
2022/01/04 10:41:22;;;;;;;3.15;0.80;;;18.00;76.40;;;;;;5110509;28;20032;-79
2022/01/04 10:43:54;;;;;;;1.05;0.70;;;18.00;76.20;;;;;;5091798;28;20110;-74
2022/01/04 10:46:44;;;;;;;3.08;1.52;;;18.10;74.90;;;;;;5091868;28;20118;-77
2022/01/04 10:49:19;;;;;;;0.98;0.98;;;18.20;74.50;;;;;;5091940;28;20031;-74
2022/01/04 10:52:03;;;;;;;1.35;0.98;;;18.20;74.60;;;;;;5109760;28;20034;-74
2022/01/04 10:54:29;;;;;;;1.13;1.13;;;18.20;73.90;;;;;;5109904;28;20106;-75
2022/01/04 10:57:07;;;;;;;1.95;0.90;;;18.20;73.70;;;;;;5110174;28;20125;-75
2022/01/04 10:59:33;;;;;;;0.90;0.75;;;18.10;74.30;;;;;;5092164;28;20038;-76
2022/01/04 11:01:59;;;;;;;1.13;1.00;;;18.00;75.20;;;;;;5091784;28;20380;-75
2022/01/04 11:04:24;;;;;;;3.28;1.52;;;17.80;76.10;;;;;;5109843;28;20028;-74
2022/01/04 11:06:58;;;;;;;0.88;0.73;;;17.70;76.70;;;;;;5109481;28;20447;-75
2022/01/04 11:09:24;;;;;;;2.90;1.40;;;17.50;78.10;;;;;;5091450;28;20030;-77
2022/01/04 11:11:50;;;;;;;2.28;0.80;;;17.40;78.20;;;;;;5110274;28;20016;-75
2022/01/04 11:14:16;;;;;;;3.80;1.00;;;17.10;80.90;;;;;;5109482;28;20373;-74
2022/01/04 11:16:42;;;;;;;1.25;0.80;;;16.80;84.50;;;;;;5091300;28;20027;-75
2022/01/04 11:19:08;;;;;;;1.77;1.20;;;16.30;88.80;;;;;;5091364;28;20034;-75
2022/01/04 11:21:43;;;;;;;3.05;1.30;;;15.70;94.20;;;;;;5109401;28;20027;-76
2022/01/04 11:24:12;;;;;;;3.65;0.90;;;15.10;99.90;;;;;;5090921;28;20074;-76
2022/01/04 11:26:44;;;;;;;1.35;0.80;;;14.90;99.90;;;;;;5088972;28;20036;-78
2022/01/04 11:29:10;;;;;;;1.10;1.00;;;14.90;99.90;;;;;;5071066;28;20032;-79
2022/01/04 11:32:11;;;;;;;1.15;0.85;;;14.90;99.90;;;;;;5070658;28;20032;-74
2022/01/04 11:35:07;;;;;;;2.15;0.80;;;14.90;99.90;;;;;;5072416;28;20023;-75
2022/01/04 11:37:34;;;;;;;5.30;0.90;;;14.90;99.90;;;;;;5087794;28;20624;-79
2022/01/04 11:40:25;;;;;;;1.38;0.75;;;14.90;99.90;;;;;;5090412;28;20047;-79
2022/01/04 11:42:51;;;;;;;0.80;0.80;;;14.90;99.90;;;;;;5090601;28;20544;-79
2022/01/04 11:45:38;;;;;;;1.92;1.60;;;14.80;99.90;;;;;;5086167;28;20031;-74
2022/01/04 11:48:04;;;;;;;0.80;0.80;;;14.80;99.90;;;;;;5089911;28;20028;-80
2022/01/04 11:50:35;;;;;;;0.90;0.90;;;14.50;99.90;;;;;;5089443;28;20391;-75
2022/01/04 11:53:09;;;;;;;2.63;1.05;;;14.30;99.90;;;;;;5107408;28;20534;-77
2022/01/04 11:55:37;;;;;;;3.25;0.65;;;13.90;99.90;;;;;;5095114;28;20026;-76
2022/01/04 11:58:08;;;;;;;4.28;1.73;;;13.60;99.90;;;;;;5101698;28;20020;-77
2022/01/04 12:00:40;;;;;;;3.20;0.90;;;13.30;99.90;;;;;;5101456;28;20023;-80
2022/01/04 12:03:20;;;;;;;2.38;1.00;;;13.10;99.90;;;;;;5094963;28;20162;-83
2022/01/04 12:05:55;;;;;;;1.05;1.00;;;12.90;99.90;;;;;;5095938;28;20615;-82
2022/01/04 12:08:34;;;;;;;2.05;1.00;;;12.80;99.90;;;;;;5089394;28;20035;-79
2022/01/04 12:11:00;;;;;;;1.58;0.60;;;12.80;99.90;;;;;;5107483;28;20024;-77
2022/01/04 12:13:46;;;;;;;1.33;1.08;;;12.80;99.90;;;;;;5088450;28;20036;-78
2022/01/04 12:16:12;;;;;;;2.80;0.98;;;12.80;99.90;;;;;;5088594;28;20023;-80
2022/01/04 12:18:38;;;;;;;2.30;0.93;;;12.90;99.90;;;;;;5087741;28;20035;-76
2022/01/04 12:21:20;;;;;;;0.77;0.77;;;13.00;99.90;;;;;;5089402;28;20410;-78
2022/01/04 12:23:48;;;;;;;6.18;0.82;;;13.00;99.90;;;;;;5088401;28;20032;-80
2022/01/04 12:26:16;;;;;;;2.10;0.90;;;13.00;99.90;;;;;;5088211;28;20024;-80
2022/01/04 12:29:05;;;;;;;1.23;0.70;;;13.10;99.90;;;;;;5069852;28;20028;-77
2022/01/04 12:31:52;;;;;;;1.40;0.77;;;13.10;99.90;;;;;;5068508;28;20509;-78
2022/01/04 12:34:28;;;;;;;1.73;1.13;;;13.20;99.90;;;;;;5086162;28;20048;-76
2022/01/04 12:36:55;;;;;;;3.85;1.10;;;13.20;99.90;;;;;;5076909;28;20392;-77
2022/01/04 12:39:30;;;;;;;0.93;0.82;;;13.10;99.90;;;;;;5072770;28;20504;-76
2022/01/04 12:41:56;;;;;;;1.45;1.10;;;13.20;99.90;;;;;;5069495;28;20464;-81
2022/01/04 12:44:24;;;;;;;2.50;1.10;;;13.20;99.90;;;;;;5088301;28;20119;-77
2022/01/04 12:46:50;;;;;;;3.00;1.00;;;13.20;99.90;;;;;;5069371;28;20424;-76
2022/01/04 12:49:19;;;;;;;1.50;0.80;;;13.30;99.90;;;;;;5088771;28;20271;-86
2022/01/04 12:51:54;;;;;;;4.50;1.10;;;13.30;99.90;;;;;;5092190;28;20027;-86
2022/01/04 12:54:43;;;;;;;1.00;0.88;;;13.30;99.90;;;;;;5073529;28;20028;-82
2022/01/04 12:57:11;;;;;;;2.53;1.02;;;13.30;99.90;;;;;;5058179;28;20133;-79
2022/01/04 12:59:49;;;;;;;1.42;0.90;;;13.20;99.90;;;;;;5070548;28;20043;-79
2022/01/04 13:02:18;;;;;;;1.60;0.93;;;13.30;99.90;;;;;;5091363;28;20027;-76
2022/01/04 13:04:47;;;;;;;2.15;1.10;;;13.30;99.90;;;;;;5070946;28;20115;-78